sensor_id;sensor_type;location;lat;lon;timestamp;P1;durP1;ratioP1;P2;durP2;ratioP2
22015;SDS011;64992;51.698;-0.292;2023-09-07T00:00:15;40.97;;;37.05;;
22015;SDS011;64992;51.698;-0.292;2023-09-07T00:02:41;42.88;;;38.58;;
22015;SDS011;64992;51.698;-0.292;2023-09-07T00:05:08;43.17;;;38.60;;
22015;SDS011;64992;51.698;-0.292;2023-09-07T00:07:35;42.47;;;38.42;;
22015;SDS011;64992;51.698;-0.292;2023-09-07T00:10:01;44.95;;;40.40;;
22015;SDS011;64992;51.698;-0.292;2023-09-07T00:12:29;45.40;;;40.85;;
22015;SDS011;64992;51.698;-0.292;2023-09-07T00:14:55;47.88;;;43.00;;
22015;SDS011;64992;51.698;-0.292;2023-09-07T00:17:21;47.70;;;42.33;;
22015;SDS011;64992;51.698;-0.292;2023-09-07T00:19:48;48.10;;;43.33;;
22015;SDS011;64992;51.698;-0.292;2023-09-07T00:22:16;46.40;;;41.50;;
22015;SDS011;64992;51.698;-0.292;2023-09-07T00:24:43;50.80;;;45.63;;
22015;SDS011;64992;51.698;-0.292;2023-09-07T00:27:10;47.83;;;42.88;;
22015;SDS011;64992;51.698;-0.292;2023-09-07T00:29:37;51.28;;;46.00;;
22015;SDS011;64992;51.698;-0.292;2023-09-07T00:32:04;53.25;;;47.75;;
22015;SDS011;64992;51.698;-0.292;2023-09-07T00:34:31;50.00;;;44.92;;
22015;SDS011;64992;51.698;-0.292;2023-09-07T00:36:57;51.78;;;46.30;;
22015;SDS011;64992;51.698;-0.292;2023-09-07T00:39:24;53.05;;;47.63;;
22015;SDS011;64992;51.698;-0.292;2023-09-07T00:41:50;54.33;;;48.25;;
22015;SDS011;64992;51.698;-0.292;2023-09-07T00:44:17;56.92;;;50.83;;
22015;SDS011;64992;51.698;-0.292;2023-09-07T00:46:43;57.90;;;52.10;;
22015;SDS011;64992;51.698;-0.292;2023-09-07T00:49:11;58.75;;;52.72;;
22015;SDS011;64992;51.698;-0.292;2023-09-07T00:51:37;61.60;;;53.17;;
22015;SDS011;64992;51.698;-0.292;2023-09-07T00:54:04;70.35;;;53.83;;
22015;SDS011;64992;51.698;-0.292;2023-09-07T00:56:30;59.92;;;53.65;;
22015;SDS011;64992;51.698;-0.292;2023-09-07T00:58:57;65.07;;;54.10;;
22015;SDS011;64992;51.698;-0.292;2023-09-07T01:01:25;62.00;;;55.25;;
22015;SDS011;64992;51.698;-0.292;2023-09-07T01:03:52;64.93;;;54.13;;
22015;SDS011;64992;51.698;-0.292;2023-09-07T01:06:20;57.80;;;50.10;;
22015;SDS011;64992;51.698;-0.292;2023-09-07T01:08:49;64.63;;;57.10;;
22015;SDS011;64992;51.698;-0.292;2023-09-07T01:11:20;62.63;;;54.85;;
22015;SDS011;64992;51.698;-0.292;2023-09-07T01:13:48;67.38;;;59.30;;
22015;SDS011;64992;51.698;-0.292;2023-09-07T01:16:14;65.25;;;58.22;;
22015;SDS011;64992;51.698;-0.292;2023-09-07T01:18:41;65.15;;;56.40;;
22015;SDS011;64992;51.698;-0.292;2023-09-07T01:21:08;62.63;;;55.83;;
22015;SDS011;64992;51.698;-0.292;2023-09-07T01:23:37;66.28;;;55.10;;
22015;SDS011;64992;51.698;-0.292;2023-09-07T01:26:05;65.53;;;58.35;;
22015;SDS011;64992;51.698;-0.292;2023-09-07T01:28:31;65.03;;;58.13;;
22015;SDS011;64992;51.698;-0.292;2023-09-07T01:30:58;64.15;;;57.38;;
22015;SDS011;64992;51.698;-0.292;2023-09-07T01:33:24;71.03;;;61.65;;
22015;SDS011;64992;51.698;-0.292;2023-09-07T01:35:50;68.70;;;59.90;;
22015;SDS011;64992;51.698;-0.292;2023-09-07T01:38:16;68.60;;;61.30;;
22015;SDS011;64992;51.698;-0.292;2023-09-07T01:40:43;71.35;;;62.33;;
22015;SDS011;64992;51.698;-0.292;2023-09-07T01:43:09;69.40;;;60.88;;
22015;SDS011;64992;51.698;-0.292;2023-09-07T01:45:35;68.85;;;61.40;;
22015;SDS011;64992;51.698;-0.292;2023-09-07T01:48:02;67.72;;;59.90;;
22015;SDS011;64992;51.698;-0.292;2023-09-07T01:50:28;71.88;;;60.78;;
22015;SDS011;64992;51.698;-0.292;2023-09-07T01:52:55;75.38;;;62.42;;
22015;SDS011;64992;51.698;-0.292;2023-09-07T01:55:21;68.20;;;61.13;;
22015;SDS011;64992;51.698;-0.292;2023-09-07T01:57:49;68.88;;;61.60;;
22015;SDS011;64992;51.698;-0.292;2023-09-07T02:00:15;65.20;;;58.17;;
22015;SDS011;64992;51.698;-0.292;2023-09-07T02:02:42;63.58;;;56.65;;
22015;SDS011;64992;51.698;-0.292;2023-09-07T02:05:08;62.72;;;55.85;;
22015;SDS011;64992;51.698;-0.292;2023-09-07T02:07:34;64.15;;;54.10;;
22015;SDS011;64992;51.698;-0.292;2023-09-07T02:10:01;65.18;;;58.13;;
22015;SDS011;64992;51.698;-0.292;2023-09-07T02:12:30;65.40;;;54.58;;
22015;SDS011;64992;51.698;-0.292;2023-09-07T02:14:58;61.15;;;54.78;;
22015;SDS011;64992;51.698;-0.292;2023-09-07T02:17:25;59.58;;;53.05;;
22015;SDS011;64992;51.698;-0.292;2023-09-07T02:19:51;58.40;;;52.03;;
22015;SDS011;64992;51.698;-0.292;2023-09-07T02:22:18;64.78;;;54.53;;
22015;SDS011;64992;51.698;-0.292;2023-09-07T02:24:44;64.25;;;54.90;;
22015;SDS011;64992;51.698;-0.292;2023-09-07T02:27:10;61.42;;;55.10;;
22015;SDS011;64992;51.698;-0.292;2023-09-07T02:29:37;62.13;;;55.83;;
22015;SDS011;64992;51.698;-0.292;2023-09-07T02:32:03;63.28;;;54.75;;
22015;SDS011;64992;51.698;-0.292;2023-09-07T02:34:29;66.35;;;57.55;;
22015;SDS011;64992;51.698;-0.292;2023-09-07T02:36:56;60.75;;;54.25;;
22015;SDS011;64992;51.698;-0.292;2023-09-07T02:39:23;66.72;;;58.63;;
22015;SDS011;64992;51.698;-0.292;2023-09-07T02:41:52;63.15;;;56.35;;
22015;SDS011;64992;51.698;-0.292;2023-09-07T02:44:18;66.78;;;59.53;;
22015;SDS011;64992;51.698;-0.292;2023-09-07T02:46:45;69.57;;;61.72;;
22015;SDS011;64992;51.698;-0.292;2023-09-07T02:49:12;68.40;;;60.22;;
22015;SDS011;64992;51.698;-0.292;2023-09-07T02:51:38;63.33;;;56.50;;
22015;SDS011;64992;51.698;-0.292;2023-09-07T02:54:05;65.00;;;58.42;;
22015;SDS011;64992;51.698;-0.292;2023-09-07T02:56:31;62.13;;;55.45;;
22015;SDS011;64992;51.698;-0.292;2023-09-07T02:58:57;60.70;;;53.13;;
22015;SDS011;64992;51.698;-0.292;2023-09-07T03:01:24;62.35;;;53.45;;
22015;SDS011;64992;51.698;-0.292;2023-09-07T03:03:50;61.80;;;55.15;;
22015;SDS011;64992;51.698;-0.292;2023-09-07T03:06:18;60.72;;;52.25;;
22015;SDS011;64992;51.698;-0.292;2023-09-07T03:08:45;61.08;;;54.45;;
22015;SDS011;64992;51.698;-0.292;2023-09-07T03:11:12;58.58;;;50.33;;
22015;SDS011;64992;51.698;-0.292;2023-09-07T03:13:39;54.97;;;48.97;;
22015;SDS011;64992;51.698;-0.292;2023-09-07T03:16:07;55.90;;;50.15;;
22015;SDS011;64992;51.698;-0.292;2023-09-07T03:18:34;55.25;;;49.38;;
22015;SDS011;64992;51.698;-0.292;2023-09-07T03:21:01;59.22;;;52.90;;
22015;SDS011;64992;51.698;-0.292;2023-09-07T03:23:32;54.47;;;48.60;;
22015;SDS011;64992;51.698;-0.292;2023-09-07T03:25:59;60.67;;;50.00;;
22015;SDS011;64992;51.698;-0.292;2023-09-07T03:28:25;58.30;;;51.83;;
22015;SDS011;64992;51.698;-0.292;2023-09-07T03:30:55;54.03;;;48.22;;
22015;SDS011;64992;51.698;-0.292;2023-09-07T03:33:22;57.40;;;50.28;;
22015;SDS011;64992;51.698;-0.292;2023-09-07T03:35:48;53.70;;;48.10;;
22015;SDS011;64992;51.698;-0.292;2023-09-07T03:38:14;60.40;;;52.45;;
22015;SDS011;64992;51.698;-0.292;2023-09-07T03:40:40;58.72;;;52.58;;
22015;SDS011;64992;51.698;-0.292;2023-09-07T03:43:08;60.47;;;53.88;;
22015;SDS011;64992;51.698;-0.292;2023-09-07T03:45:35;58.78;;;52.35;;
22015;SDS011;64992;51.698;-0.292;2023-09-07T03:48:01;60.63;;;54.35;;
22015;SDS011;64992;51.698;-0.292;2023-09-07T03:50:27;57.53;;;51.42;;
22015;SDS011;64992;51.698;-0.292;2023-09-07T03:52:55;63.92;;;52.58;;
22015;SDS011;64992;51.698;-0.292;2023-09-07T03:55:21;64.53;;;57.47;;
22015;SDS011;64992;51.698;-0.292;2023-09-07T03:57:48;60.08;;;53.05;;
22015;SDS011;64992;51.698;-0.292;2023-09-07T04:00:15;59.58;;;52.58;;
22015;SDS011;64992;51.698;-0.292;2023-09-07T04:02:41;63.80;;;56.83;;
22015;SDS011;64992;51.698;-0.292;2023-09-07T04:05:08;65.63;;;57.92;;
22015;SDS011;64992;51.698;-0.292;2023-09-07T04:07:35;64.60;;;54.58;;
22015;SDS011;64992;51.698;-0.292;2023-09-07T04:10:02;62.72;;;55.95;;
22015;SDS011;64992;51.698;-0.292;2023-09-07T04:12:29;63.35;;;56.63;;
22015;SDS011;64992;51.698;-0.292;2023-09-07T04:14:56;62.90;;;56.03;;
22015;SDS011;64992;51.698;-0.292;2023-09-07T04:17:23;64.05;;;57.28;;
22015;SDS011;64992;51.698;-0.292;2023-09-07T04:19:49;67.63;;;59.88;;
22015;SDS011;64992;51.698;-0.292;2023-09-07T04:22:15;70.32;;;62.83;;
22015;SDS011;64992;51.698;-0.292;2023-09-07T04:24:42;72.55;;;62.80;;
22015;SDS011;64992;51.698;-0.292;2023-09-07T04:27:09;64.82;;;57.58;;
22015;SDS011;64992;51.698;-0.292;2023-09-07T04:29:35;65.55;;;58.53;;
22015;SDS011;64992;51.698;-0.292;2023-09-07T04:32:01;70.53;;;63.10;;
22015;SDS011;64992;51.698;-0.292;2023-09-07T04:34:27;66.18;;;59.10;;
22015;SDS011;64992;51.698;-0.292;2023-09-07T04:36:53;67.70;;;60.42;;
22015;SDS011;64992;51.698;-0.292;2023-09-07T04:39:20;68.97;;;61.15;;
22015;SDS011;64992;51.698;-0.292;2023-09-07T04:41:46;65.38;;;57.60;;
22015;SDS011;64992;51.698;-0.292;2023-09-07T04:44:12;68.82;;;60.63;;
22015;SDS011;64992;51.698;-0.292;2023-09-07T04:46:38;69.50;;;61.97;;
22015;SDS011;64992;51.698;-0.292;2023-09-07T04:49:04;69.60;;;62.28;;
22015;SDS011;64992;51.698;-0.292;2023-09-07T04:51:31;70.57;;;61.17;;
22015;SDS011;64992;51.698;-0.292;2023-09-07T04:53:57;80.03;;;68.07;;
22015;SDS011;64992;51.698;-0.292;2023-09-07T04:56:24;75.32;;;66.72;;
22015;SDS011;64992;51.698;-0.292;2023-09-07T04:58:51;69.07;;;61.60;;
22015;SDS011;64992;51.698;-0.292;2023-09-07T05:01:17;73.35;;;65.40;;
22015;SDS011;64992;51.698;-0.292;2023-09-07T05:03:43;82.57;;;71.95;;
22015;SDS011;64992;51.698;-0.292;2023-09-07T05:06:11;82.25;;;70.60;;
22015;SDS011;64992;51.698;-0.292;2023-09-07T05:08:37;80.00;;;71.40;;
22015;SDS011;64992;51.698;-0.292;2023-09-07T05:11:03;85.80;;;71.95;;
22015;SDS011;64992;51.698;-0.292;2023-09-07T05:13:30;78.00;;;69.25;;
22015;SDS011;64992;51.698;-0.292;2023-09-07T05:15:57;74.50;;;66.65;;
22015;SDS011;64992;51.698;-0.292;2023-09-07T05:18:24;80.40;;;66.82;;
22015;SDS011;64992;51.698;-0.292;2023-09-07T05:20:50;76.25;;;65.25;;
22015;SDS011;64992;51.698;-0.292;2023-09-07T05:23:18;74.65;;;66.97;;
22015;SDS011;64992;51.698;-0.292;2023-09-07T05:25:49;77.50;;;69.00;;
22015;SDS011;64992;51.698;-0.292;2023-09-07T05:28:18;82.45;;;69.95;;
22015;SDS011;64992;51.698;-0.292;2023-09-07T05:30:45;77.60;;;69.32;;
22015;SDS011;64992;51.698;-0.292;2023-09-07T05:33:13;80.03;;;71.65;;
22015;SDS011;64992;51.698;-0.292;2023-09-07T05:35:40;80.93;;;71.75;;
22015;SDS011;64992;51.698;-0.292;2023-09-07T05:38:07;87.45;;;72.53;;
22015;SDS011;64992;51.698;-0.292;2023-09-07T05:40:34;77.38;;;68.93;;
22015;SDS011;64992;51.698;-0.292;2023-09-07T05:43:00;68.82;;;61.63;;
22015;SDS011;64992;51.698;-0.292;2023-09-07T05:45:26;78.07;;;66.38;;
22015;SDS011;64992;51.698;-0.292;2023-09-07T05:47:52;72.25;;;61.38;;
22015;SDS011;64992;51.698;-0.292;2023-09-07T05:50:19;68.30;;;60.90;;
22015;SDS011;64992;51.698;-0.292;2023-09-07T05:52:46;67.53;;;57.95;;
22015;SDS011;64992;51.698;-0.292;2023-09-07T05:55:12;66.78;;;58.97;;
22015;SDS011;64992;51.698;-0.292;2023-09-07T05:57:38;70.60;;;61.03;;
22015;SDS011;64992;51.698;-0.292;2023-09-07T06:00:05;68.57;;;61.35;;
22015;SDS011;64992;51.698;-0.292;2023-09-07T06:02:31;70.38;;;59.30;;
22015;SDS011;64992;51.698;-0.292;2023-09-07T06:04:58;68.07;;;60.55;;
22015;SDS011;64992;51.698;-0.292;2023-09-07T06:07:24;64.35;;;57.22;;
22015;SDS011;64992;51.698;-0.292;2023-09-07T06:09:50;68.95;;;60.05;;
22015;SDS011;64992;51.698;-0.292;2023-09-07T06:12:16;67.85;;;56.78;;
22015;SDS011;64992;51.698;-0.292;2023-09-07T06:14:44;64.95;;;56.13;;
22015;SDS011;64992;51.698;-0.292;2023-09-07T06:17:12;64.75;;;57.78;;
22015;SDS011;64992;51.698;-0.292;2023-09-07T06:19:38;66.43;;;59.70;;
22015;SDS011;64992;51.698;-0.292;2023-09-07T06:22:05;64.30;;;57.70;;
22015;SDS011;64992;51.698;-0.292;2023-09-07T06:24:32;67.80;;;60.35;;
22015;SDS011;64992;51.698;-0.292;2023-09-07T06:26:58;71.55;;;59.80;;
22015;SDS011;64992;51.698;-0.292;2023-09-07T06:29:25;67.13;;;55.83;;
22015;SDS011;64992;51.698;-0.292;2023-09-07T06:31:52;58.80;;;52.67;;
22015;SDS011;64992;51.698;-0.292;2023-09-07T06:34:18;61.28;;;54.65;;
22015;SDS011;64992;51.698;-0.292;2023-09-07T06:36:45;61.40;;;54.92;;
22015;SDS011;64992;51.698;-0.292;2023-09-07T06:39:11;67.75;;;60.45;;
22015;SDS011;64992;51.698;-0.292;2023-09-07T06:41:38;63.08;;;56.40;;
22015;SDS011;64992;51.698;-0.292;2023-09-07T06:44:05;62.00;;;52.10;;
22015;SDS011;64992;51.698;-0.292;2023-09-07T06:46:31;56.60;;;50.42;;
22015;SDS011;64992;51.698;-0.292;2023-09-07T06:48:58;62.50;;;50.65;;
22015;SDS011;64992;51.698;-0.292;2023-09-07T06:51:24;57.70;;;51.78;;
22015;SDS011;64992;51.698;-0.292;2023-09-07T06:53:50;60.20;;;51.88;;
22015;SDS011;64992;51.698;-0.292;2023-09-07T06:56:17;57.58;;;51.53;;
22015;SDS011;64992;51.698;-0.292;2023-09-07T06:58:43;58.25;;;52.10;;
22015;SDS011;64992;51.698;-0.292;2023-09-07T07:01:09;54.45;;;49.05;;
22015;SDS011;64992;51.698;-0.292;2023-09-07T07:03:35;52.30;;;46.65;;
22015;SDS011;64992;51.698;-0.292;2023-09-07T07:06:01;55.95;;;50.03;;
22015;SDS011;64992;51.698;-0.292;2023-09-07T07:08:28;56.42;;;50.70;;
22015;SDS011;64992;51.698;-0.292;2023-09-07T07:10:54;54.90;;;49.30;;
22015;SDS011;64992;51.698;-0.292;2023-09-07T07:13:21;55.10;;;49.00;;
22015;SDS011;64992;51.698;-0.292;2023-09-07T07:15:47;49.53;;;44.47;;
22015;SDS011;64992;51.698;-0.292;2023-09-07T07:18:13;49.10;;;44.30;;
22015;SDS011;64992;51.698;-0.292;2023-09-07T07:20:40;50.47;;;44.42;;
22015;SDS011;64992;51.698;-0.292;2023-09-07T07:23:06;47.30;;;42.00;;
22015;SDS011;64992;51.698;-0.292;2023-09-07T07:25:33;49.15;;;41.50;;
22015;SDS011;64992;51.698;-0.292;2023-09-07T07:27:59;43.35;;;38.67;;
22015;SDS011;64992;51.698;-0.292;2023-09-07T07:30:29;43.88;;;39.35;;
22015;SDS011;64992;51.698;-0.292;2023-09-07T07:32:55;44.17;;;37.85;;
22015;SDS011;64992;51.698;-0.292;2023-09-07T07:35:22;44.53;;;36.65;;
22015;SDS011;64992;51.698;-0.292;2023-09-07T07:37:51;47.45;;;37.63;;
22015;SDS011;64992;51.698;-0.292;2023-09-07T07:40:17;44.88;;;37.15;;
22015;SDS011;64992;51.698;-0.292;2023-09-07T07:42:45;41.72;;;37.35;;
22015;SDS011;64992;51.698;-0.292;2023-09-07T07:45:12;40.58;;;35.38;;
22015;SDS011;64992;51.698;-0.292;2023-09-07T07:47:39;39.47;;;35.28;;
22015;SDS011;64992;51.698;-0.292;2023-09-07T07:50:05;41.70;;;37.40;;
22015;SDS011;64992;51.698;-0.292;2023-09-07T07:52:32;43.47;;;34.55;;
22015;SDS011;64992;51.698;-0.292;2023-09-07T07:54:59;41.90;;;33.83;;
22015;SDS011;64992;51.698;-0.292;2023-09-07T07:57:25;39.70;;;34.75;;
22015;SDS011;64992;51.698;-0.292;2023-09-07T07:59:52;36.67;;;32.33;;
22015;SDS011;64992;51.698;-0.292;2023-09-07T08:02:19;38.83;;;30.45;;
22015;SDS011;64992;51.698;-0.292;2023-09-07T08:04:45;37.28;;;31.95;;
22015;SDS011;64992;51.698;-0.292;2023-09-07T08:07:11;35.75;;;32.28;;
22015;SDS011;64992;51.698;-0.292;2023-09-07T08:09:37;37.45;;;33.38;;
22015;SDS011;64992;51.698;-0.292;2023-09-07T08:12:04;38.00;;;32.97;;
22015;SDS011;64992;51.698;-0.292;2023-09-07T08:14:31;39.03;;;34.85;;
22015;SDS011;64992;51.698;-0.292;2023-09-07T08:16:58;41.03;;;36.67;;
22015;SDS011;64992;51.698;-0.292;2023-09-07T08:19:25;39.63;;;35.42;;
22015;SDS011;64992;51.698;-0.292;2023-09-07T08:21:53;38.17;;;33.72;;
22015;SDS011;64992;51.698;-0.292;2023-09-07T08:24:21;38.45;;;34.58;;
22015;SDS011;64992;51.698;-0.292;2023-09-07T08:26:47;43.53;;;33.42;;
22015;SDS011;64992;51.698;-0.292;2023-09-07T08:29:17;34.85;;;31.45;;
22015;SDS011;64992;51.698;-0.292;2023-09-07T08:31:45;43.75;;;34.13;;
22015;SDS011;64992;51.698;-0.292;2023-09-07T08:40:20;34.83;;;30.08;;
22015;SDS011;64992;51.698;-0.292;2023-09-07T08:42:46;34.80;;;28.65;;
22015;SDS011;64992;51.698;-0.292;2023-09-07T08:45:21;37.78;;;29.08;;
22015;SDS011;64992;51.698;-0.292;2023-09-07T08:54:08;29.58;;;26.45;;
22015;SDS011;64992;51.698;-0.292;2023-09-07T08:56:35;30.85;;;26.77;;
22015;SDS011;64992;51.698;-0.292;2023-09-07T08:59:01;30.42;;;23.65;;
22015;SDS011;64992;51.698;-0.292;2023-09-07T09:01:28;29.17;;;26.25;;
22015;SDS011;64992;51.698;-0.292;2023-09-07T09:03:57;26.75;;;24.05;;
22015;SDS011;64992;51.698;-0.292;2023-09-07T09:06:23;23.25;;;20.77;;
22015;SDS011;64992;51.698;-0.292;2023-09-07T09:08:50;24.52;;;22.02;;
22015;SDS011;64992;51.698;-0.292;2023-09-07T09:16:51;24.00;;;21.45;;
22015;SDS011;64992;51.698;-0.292;2023-09-07T09:19:17;24.00;;;21.40;;
22015;SDS011;64992;51.698;-0.292;2023-09-07T09:45:57;18.38;;;15.90;;
22015;SDS011;64992;51.698;-0.292;2023-09-07T09:48:26;21.38;;;18.48;;
22015;SDS011;64992;51.698;-0.292;2023-09-07T09:50:53;20.50;;;18.42;;
22015;SDS011;64992;51.698;-0.292;2023-09-07T09:53:22;26.70;;;20.13;;
22015;SDS011;64992;51.698;-0.292;2023-09-07T09:56:24;26.42;;;21.30;;
22015;SDS011;64992;51.698;-0.292;2023-09-07T09:58:51;21.67;;;19.17;;
22015;SDS011;64992;51.698;-0.292;2023-09-07T10:01:17;17.08;;;14.15;;
22015;SDS011;64992;51.698;-0.292;2023-09-07T10:03:45;22.23;;;14.15;;
22015;SDS011;64992;51.698;-0.292;2023-09-07T10:06:12;25.17;;;19.70;;
22015;SDS011;64992;51.698;-0.292;2023-09-07T10:11:33;23.13;;;15.07;;
22015;SDS011;64992;51.698;-0.292;2023-09-07T10:14:03;17.17;;;15.38;;
22015;SDS011;64992;51.698;-0.292;2023-09-07T10:16:40;19.27;;;14.60;;
22015;SDS011;64992;51.698;-0.292;2023-09-07T10:19:16;20.00;;;15.10;;
22015;SDS011;64992;51.698;-0.292;2023-09-07T10:24:46;14.95;;;13.30;;
22015;SDS011;64992;51.698;-0.292;2023-09-07T10:30:26;16.63;;;13.77;;
22015;SDS011;64992;51.698;-0.292;2023-09-07T10:32:53;20.90;;;15.77;;
22015;SDS011;64992;51.698;-0.292;2023-09-07T10:35:19;15.55;;;12.35;;
22015;SDS011;64992;51.698;-0.292;2023-09-07T10:37:50;14.02;;;12.23;;
22015;SDS011;64992;51.698;-0.292;2023-09-07T10:40:20;13.30;;;10.40;;
22015;SDS011;64992;51.698;-0.292;2023-09-07T10:42:47;14.18;;;8.68;;
22015;SDS011;64992;51.698;-0.292;2023-09-07T10:45:14;9.65;;;8.48;;
22015;SDS011;64992;51.698;-0.292;2023-09-07T10:47:44;11.13;;;9.00;;
22015;SDS011;64992;51.698;-0.292;2023-09-07T10:50:14;9.88;;;8.98;;
22015;SDS011;64992;51.698;-0.292;2023-09-07T10:52:40;13.82;;;8.82;;
22015;SDS011;64992;51.698;-0.292;2023-09-07T10:55:07;16.63;;;8.68;;
22015;SDS011;64992;51.698;-0.292;2023-09-07T10:57:41;12.57;;;8.63;;
22015;SDS011;64992;51.698;-0.292;2023-09-07T11:00:07;11.95;;;8.90;;
22015;SDS011;64992;51.698;-0.292;2023-09-07T11:02:36;11.63;;;9.13;;
22015;SDS011;64992;51.698;-0.292;2023-09-07T11:05:02;18.42;;;11.07;;
22015;SDS011;64992;51.698;-0.292;2023-09-07T11:07:28;17.92;;;9.90;;
22015;SDS011;64992;51.698;-0.292;2023-09-07T11:09:54;14.38;;;8.32;;
22015;SDS011;64992;51.698;-0.292;2023-09-07T11:12:20;12.60;;;8.02;;
22015;SDS011;64992;51.698;-0.292;2023-09-07T11:14:47;8.05;;;7.25;;
22015;SDS011;64992;51.698;-0.292;2023-09-07T11:17:13;12.95;;;7.88;;
22015;SDS011;64992;51.698;-0.292;2023-09-07T11:19:39;14.50;;;7.32;;
22015;SDS011;64992;51.698;-0.292;2023-09-07T11:22:05;12.68;;;6.95;;
22015;SDS011;64992;51.698;-0.292;2023-09-07T11:24:32;15.57;;;8.10;;
22015;SDS011;64992;51.698;-0.292;2023-09-07T11:26:58;8.63;;;7.80;;
22015;SDS011;64992;51.698;-0.292;2023-09-07T11:29:49;13.27;;;7.60;;
22015;SDS011;64992;51.698;-0.292;2023-09-07T11:35:51;11.80;;;8.45;;
22015;SDS011;64992;51.698;-0.292;2023-09-07T11:38:20;10.68;;;8.50;;
22015;SDS011;64992;51.698;-0.292;2023-09-07T11:40:46;9.70;;;7.70;;
22015;SDS011;64992;51.698;-0.292;2023-09-07T11:43:13;13.40;;;7.70;;
22015;SDS011;64992;51.698;-0.292;2023-09-07T11:45:42;8.63;;;7.72;;
22015;SDS011;64992;51.698;-0.292;2023-09-07T11:48:09;10.82;;;8.60;;
22015;SDS011;64992;51.698;-0.292;2023-09-07T11:50:36;12.80;;;9.40;;
22015;SDS011;64992;51.698;-0.292;2023-09-07T11:53:02;9.10;;;8.20;;
22015;SDS011;64992;51.698;-0.292;2023-09-07T11:55:29;7.70;;;6.95;;
22015;SDS011;64992;51.698;-0.292;2023-09-07T11:57:55;9.40;;;6.50;;
22015;SDS011;64992;51.698;-0.292;2023-09-07T12:00:21;8.77;;;7.38;;
22015;SDS011;64992;51.698;-0.292;2023-09-07T12:02:48;10.68;;;7.78;;
22015;SDS011;64992;51.698;-0.292;2023-09-07T12:05:14;13.55;;;6.63;;
22015;SDS011;64992;51.698;-0.292;2023-09-07T12:07:42;12.68;;;7.03;;
22015;SDS011;64992;51.698;-0.292;2023-09-07T12:10:08;10.18;;;6.95;;
22015;SDS011;64992;51.698;-0.292;2023-09-07T12:12:42;11.25;;;5.78;;
22015;SDS011;64992;51.698;-0.292;2023-09-07T12:15:09;8.32;;;6.13;;
22015;SDS011;64992;51.698;-0.292;2023-09-07T12:17:38;8.43;;;5.20;;
22015;SDS011;64992;51.698;-0.292;2023-09-07T12:20:05;5.75;;;5.13;;
22015;SDS011;64992;51.698;-0.292;2023-09-07T12:22:38;7.75;;;5.30;;
22015;SDS011;64992;51.698;-0.292;2023-09-07T12:25:05;9.70;;;5.93;;
22015;SDS011;64992;51.698;-0.292;2023-09-07T12:27:35;10.57;;;5.50;;
22015;SDS011;64992;51.698;-0.292;2023-09-07T12:30:02;7.70;;;5.68;;
22015;SDS011;64992;51.698;-0.292;2023-09-07T12:32:32;12.00;;;4.95;;
22015;SDS011;64992;51.698;-0.292;2023-09-07T12:34:59;9.60;;;4.70;;
22015;SDS011;64992;51.698;-0.292;2023-09-07T12:37:25;7.32;;;4.72;;
22015;SDS011;64992;51.698;-0.292;2023-09-07T12:39:51;10.65;;;6.05;;
22015;SDS011;64992;51.698;-0.292;2023-09-07T12:42:18;7.22;;;4.80;;
22015;SDS011;64992;51.698;-0.292;2023-09-07T12:44:44;11.35;;;7.57;;
22015;SDS011;64992;51.698;-0.292;2023-09-07T12:47:10;13.40;;;7.25;;
22015;SDS011;64992;51.698;-0.292;2023-09-07T12:49:36;12.15;;;7.13;;
22015;SDS011;64992;51.698;-0.292;2023-09-07T12:52:03;8.52;;;7.68;;
22015;SDS011;64992;51.698;-0.292;2023-09-07T12:54:34;10.25;;;7.07;;
22015;SDS011;64992;51.698;-0.292;2023-09-07T12:57:01;8.93;;;7.10;;
22015;SDS011;64992;51.698;-0.292;2023-09-07T12:59:28;8.70;;;6.20;;
22015;SDS011;64992;51.698;-0.292;2023-09-07T13:01:55;8.80;;;6.78;;
22015;SDS011;64992;51.698;-0.292;2023-09-07T13:04:22;8.10;;;6.43;;
22015;SDS011;64992;51.698;-0.292;2023-09-07T13:06:48;8.38;;;6.13;;
22015;SDS011;64992;51.698;-0.292;2023-09-07T13:09:14;7.90;;;7.13;;
22015;SDS011;64992;51.698;-0.292;2023-09-07T13:11:41;10.13;;;7.32;;
22015;SDS011;64992;51.698;-0.292;2023-09-07T13:14:07;10.45;;;7.07;;
22015;SDS011;64992;51.698;-0.292;2023-09-07T13:16:34;10.52;;;6.95;;
22015;SDS011;64992;51.698;-0.292;2023-09-07T13:19:00;12.60;;;7.07;;
22015;SDS011;64992;51.698;-0.292;2023-09-07T13:21:26;11.02;;;6.00;;
22015;SDS011;64992;51.698;-0.292;2023-09-07T13:23:52;14.43;;;7.05;;
22015;SDS011;64992;51.698;-0.292;2023-09-07T13:26:19;8.00;;;7.20;;
22015;SDS011;64992;51.698;-0.292;2023-09-07T13:28:45;10.32;;;6.90;;
22015;SDS011;64992;51.698;-0.292;2023-09-07T13:31:13;8.60;;;6.35;;
22015;SDS011;64992;51.698;-0.292;2023-09-07T13:33:39;9.32;;;7.30;;
22015;SDS011;64992;51.698;-0.292;2023-09-07T13:36:05;7.50;;;6.80;;
22015;SDS011;64992;51.698;-0.292;2023-09-07T13:38:32;11.40;;;6.07;;
22015;SDS011;64992;51.698;-0.292;2023-09-07T13:40:58;9.30;;;6.57;;
22015;SDS011;64992;51.698;-0.292;2023-09-07T13:43:25;9.68;;;5.50;;
22015;SDS011;64992;51.698;-0.292;2023-09-07T13:45:51;9.95;;;5.72;;
22015;SDS011;64992;51.698;-0.292;2023-09-07T13:48:18;10.07;;;5.57;;
22015;SDS011;64992;51.698;-0.292;2023-09-07T13:50:44;10.38;;;5.93;;
22015;SDS011;64992;51.698;-0.292;2023-09-07T13:53:12;6.18;;;5.57;;
22015;SDS011;64992;51.698;-0.292;2023-09-07T13:55:39;9.93;;;7.05;;
22015;SDS011;64992;51.698;-0.292;2023-09-07T13:58:07;6.25;;;5.63;;
22015;SDS011;64992;51.698;-0.292;2023-09-07T14:00:34;8.02;;;5.53;;
22015;SDS011;64992;51.698;-0.292;2023-09-07T14:03:00;13.05;;;5.53;;
22015;SDS011;64992;51.698;-0.292;2023-09-07T14:05:26;9.48;;;5.22;;
22015;SDS011;64992;51.698;-0.292;2023-09-07T14:07:53;6.53;;;5.13;;
22015;SDS011;64992;51.698;-0.292;2023-09-07T14:10:19;10.23;;;5.18;;
22015;SDS011;64992;51.698;-0.292;2023-09-07T14:12:47;6.63;;;5.53;;
22015;SDS011;64992;51.698;-0.292;2023-09-07T14:15:14;9.85;;;5.47;;
22015;SDS011;64992;51.698;-0.292;2023-09-07T14:17:40;6.03;;;5.10;;
22015;SDS011;64992;51.698;-0.292;2023-09-07T14:20:06;11.10;;;5.25;;
22015;SDS011;64992;51.698;-0.292;2023-09-07T14:22:32;12.50;;;5.65;;
22015;SDS011;64992;51.698;-0.292;2023-09-07T14:24:59;7.60;;;5.10;;
22015;SDS011;64992;51.698;-0.292;2023-09-07T14:27:25;12.05;;;6.43;;
22015;SDS011;64992;51.698;-0.292;2023-09-07T14:29:52;6.88;;;5.68;;
22015;SDS011;64992;51.698;-0.292;2023-09-07T14:32:18;10.10;;;6.18;;
22015;SDS011;64992;51.698;-0.292;2023-09-07T14:34:44;8.20;;;5.38;;
22015;SDS011;64992;51.698;-0.292;2023-09-07T14:37:11;8.82;;;5.28;;
22015;SDS011;64992;51.698;-0.292;2023-09-07T14:39:37;13.07;;;5.85;;
22015;SDS011;64992;51.698;-0.292;2023-09-07T14:42:04;7.28;;;5.57;;
22015;SDS011;64992;51.698;-0.292;2023-09-07T14:44:36;14.80;;;5.85;;
22015;SDS011;64992;51.698;-0.292;2023-09-07T14:47:03;15.32;;;6.30;;
22015;SDS011;64992;51.698;-0.292;2023-09-07T14:49:30;8.25;;;6.65;;
22015;SDS011;64992;51.698;-0.292;2023-09-07T14:51:57;6.35;;;5.10;;
22015;SDS011;64992;51.698;-0.292;2023-09-07T14:54:23;6.35;;;5.72;;
22015;SDS011;64992;51.698;-0.292;2023-09-07T14:56:49;9.45;;;5.93;;
22015;SDS011;64992;51.698;-0.292;2023-09-07T14:59:15;8.07;;;6.40;;
22015;SDS011;64992;51.698;-0.292;2023-09-07T15:01:42;12.20;;;5.78;;
22015;SDS011;64992;51.698;-0.292;2023-09-07T15:04:08;10.13;;;6.53;;
22015;SDS011;64992;51.698;-0.292;2023-09-07T15:06:36;10.25;;;5.80;;